Time;durP1;ratioP1;P1;durP2;ratioP2;P2;SDS_P1;SDS_P2;PMS_P1;PMS_P2;Temp;Humidity;BMP_temperature;BMP_pressure;BME280_temperature;BME280_humidity;BME280_pressure;Samples;Min_cycle;Max_cycle;Signal;HPM_P1;HPM_P2
2023/06/28 00:00:20;;;;;;;12.93;7.15;;;17.30;99.90;;;;;;5017599;28;20108;-94
2023/06/28 00:02:46;;;;;;;14.25;6.75;;;17.30;99.90;;;;;;5016655;28;20551;-93
2023/06/28 00:05:12;;;;;;;16.45;6.75;;;17.30;99.90;;;;;;5016669;28;20061;-94
2023/06/28 00:07:38;;;;;;;13.70;6.95;;;17.30;99.90;;;;;;5016181;28;20068;-94
2023/06/28 00:10:05;;;;;;;14.02;6.40;;;17.30;99.90;;;;;;5016338;28;20112;-94
2023/06/28 00:12:32;;;;;;;15.93;6.65;;;17.30;99.90;;;;;;5016090;28;20030;-93
2023/06/28 00:14:59;;;;;;;11.50;6.13;;;17.30;99.90;;;;;;5016478;28;20124;-93
2023/06/28 00:17:28;;;;;;;12.10;6.63;;;17.30;99.90;;;;;;5016192;28;20459;-94
2023/06/28 00:19:59;;;;;;;13.68;6.72;;;17.30;99.90;;;;;;5015610;28;20123;-93
2023/06/28 00:22:31;;;;;;;13.70;7.05;;;17.30;99.90;;;;;;5016212;28;20029;-95
2023/06/28 00:24:59;;;;;;;15.40;7.18;;;17.30;99.90;;;;;;5016048;28;20025;-95
2023/06/28 00:27:25;;;;;;;16.50;7.25;;;17.30;99.90;;;;;;5016282;28;20033;-92
2023/06/28 00:29:50;;;;;;;13.27;6.88;;;17.30;99.90;;;;;;5016508;28;20041;-93
2023/06/28 00:32:16;;;;;;;13.93;7.10;;;17.30;99.90;;;;;;5016672;28;20445;-94
2023/06/28 00:34:42;;;;;;;13.38;6.88;;;17.30;99.90;;;;;;5025755;28;20030;-95
2023/06/28 00:37:08;;;;;;;14.07;7.72;;;17.20;99.90;;;;;;5050609;28;20013;-91
2023/06/28 00:39:34;;;;;;;16.33;6.82;;;17.30;99.90;;;;;;5071842;28;20033;-93
2023/06/28 00:42:00;;;;;;;14.63;7.13;;;17.20;99.90;;;;;;5051595;28;20047;-93
2023/06/28 00:44:26;;;;;;;14.20;7.00;;;17.20;99.90;;;;;;5066812;28;20228;-94
2023/06/28 00:46:54;;;;;;;16.20;6.97;;;17.20;99.90;;;;;;5047945;28;20055;-95
2023/06/28 00:49:19;;;;;;;12.43;6.75;;;17.20;99.90;;;;;;5060184;28;20029;-93
2023/06/28 00:51:46;;;;;;;15.85;7.18;;;17.20;99.90;;;;;;5048074;28;20025;-94
2023/06/28 00:54:12;;;;;;;14.23;7.35;;;17.20;99.90;;;;;;5074940;28;20048;-93
2023/06/28 00:56:38;;;;;;;18.92;7.60;;;17.20;99.90;;;;;;5059637;28;20033;-92
2023/06/28 00:59:05;;;;;;;15.15;7.30;;;17.20;99.90;;;;;;5074890;28;20025;-92
2023/06/28 01:01:31;;;;;;;17.90;8.02;;;17.20;99.90;;;;;;5076109;28;20044;-89
2023/06/28 01:04:00;;;;;;;17.23;7.40;;;17.30;99.90;;;;;;5057504;28;20021;-92
2023/06/28 01:06:35;;;;;;;14.25;7.50;;;17.30;99.90;;;;;;5057745;28;20031;-92
2023/06/28 01:09:03;;;;;;;15.30;8.38;;;17.20;99.90;;;;;;5074849;28;20041;-94
2023/06/28 01:11:30;;;;;;;14.65;8.73;;;17.30;99.90;;;;;;5067128;28;20049;-94
2023/06/28 01:13:57;;;;;;;18.20;8.88;;;17.30;99.90;;;;;;5041084;28;20025;-95
2023/06/28 01:16:23;;;;;;;15.48;7.82;;;17.30;99.90;;;;;;5056616;28;20025;-93
2023/06/28 01:18:48;;;;;;;14.73;8.65;;;17.30;99.90;;;;;;5039283;28;20095;-94
2023/06/28 01:21:17;;;;;;;15.90;8.52;;;17.30;99.90;;;;;;5038550;28;20026;-93
2023/06/28 01:23:45;;;;;;;17.25;8.52;;;17.30;99.90;;;;;;5055561;28;20120;-96
2023/06/28 01:26:11;;;;;;;15.57;8.15;;;17.30;99.90;;;;;;5055004;28;20029;-94
2023/06/28 01:28:38;;;;;;;17.48;9.30;;;17.30;99.90;;;;;;5054362;28;20476;-95
2023/06/28 01:31:04;;;;;;;15.57;8.35;;;17.30;99.90;;;;;;5054782;28;20058;-96
2023/06/28 01:33:30;;;;;;;20.27;9.15;;;17.30;99.90;;;;;;5057743;28;20032;-96
2023/06/28 01:35:59;;;;;;;18.08;9.32;;;17.40;99.90;;;;;;5041772;28;20052;-95
2023/06/28 01:38:26;;;;;;;17.48;8.63;;;17.40;99.90;;;;;;5042041;28;20041;-95
2023/06/28 01:40:53;;;;;;;15.63;8.43;;;17.40;99.90;;;;;;5057726;28;20021;-96
2023/06/28 01:43:20;;;;;;;14.90;8.73;;;17.40;99.90;;;;;;5043353;28;20101;-96
2023/06/28 01:45:47;;;;;;;21.02;10.05;;;17.40;99.90;;;;;;5062693;28;20041;-96
2023/06/28 01:48:13;;;;;;;18.98;10.23;;;17.40;99.90;;;;;;5050189;28;20076;-95
2023/06/28 01:50:39;;;;;;;19.05;9.23;;;17.40;99.90;;;;;;5048613;28;20033;-96
2023/06/28 01:53:07;;;;;;;16.73;8.82;;;17.40;99.90;;;;;;5048076;28;20025;-93
2023/06/28 01:55:33;;;;;;;20.15;9.52;;;17.40;99.90;;;;;;5072469;28;20040;-93
2023/06/28 01:57:59;;;;;;;18.63;9.43;;;17.40;99.90;;;;;;5057728;28;20117;-96
2023/06/28 02:00:24;;;;;;;15.80;8.32;;;17.40;99.90;;;;;;5049644;28;20096;-93
2023/06/28 02:02:50;;;;;;;19.02;9.27;;;17.40;99.90;;;;;;5055916;28;20025;-94
2023/06/28 02:05:17;;;;;;;16.83;8.93;;;17.50;99.90;;;;;;5050830;28;20025;-94
2023/06/28 02:07:42;;;;;;;18.92;9.30;;;17.50;99.90;;;;;;5068380;28;20067;-94
2023/06/28 02:10:10;;;;;;;19.35;9.43;;;17.50;99.90;;;;;;5056119;28;20040;-96
2023/06/28 02:12:35;;;;;;;22.33;9.30;;;17.50;99.90;;;;;;5051447;28;20024;-95
2023/06/28 02:15:02;;;;;;;17.02;9.40;;;17.50;99.90;;;;;;5049767;28;20049;-94
2023/06/28 02:17:30;;;;;;;16.88;9.30;;;17.50;99.90;;;;;;5064890;28;20021;-95
2023/06/28 02:20:18;;;;;;;16.58;8.65;;;17.50;99.90;;;;;;5061875;28;20094;-96
2023/06/28 02:22:44;;;;;;;21.73;9.40;;;17.50;99.90;;;;;;5070641;28;20036;-95
2023/06/28 02:25:10;;;;;;;16.30;9.68;;;17.50;99.90;;;;;;5055297;28;20032;-96
2023/06/28 02:27:36;;;;;;;21.63;9.93;;;17.50;99.90;;;;;;5053721;28;20037;-95
2023/06/28 02:30:01;;;;;;;19.17;9.48;;;17.50;99.90;;;;;;5051348;28;20029;-95
2023/06/28 02:32:30;;;;;;;14.63;9.20;;;17.50;99.90;;;;;;5049066;28;20155;-96
2023/06/28 02:34:58;;;;;;;20.92;9.27;;;17.50;99.90;;;;;;5044466;28;20032;-94
2023/06/28 02:37:25;;;;;;;15.25;7.32;;;17.40;99.90;;;;;;5043404;28;20040;-94
2023/06/28 02:39:50;;;;;;;18.45;8.02;;;17.40;99.90;;;;;;5040272;28;20025;-95
2023/06/28 02:42:16;;;;;;;14.18;8.18;;;17.40;99.90;;;;;;5040993;28;20024;-95
2023/06/28 02:44:42;;;;;;;17.08;8.35;;;17.50;99.90;;;;;;5039302;28;20048;-95
2023/06/28 02:47:07;;;;;;;13.02;7.72;;;17.40;99.90;;;;;;5039121;28;20049;-95
2023/06/28 02:49:33;;;;;;;13.50;8.27;;;17.40;99.90;;;;;;5038404;28;20521;-94
2023/06/28 02:51:59;;;;;;;19.13;8.60;;;17.40;99.90;;;;;;5038033;28;20036;-95
2023/06/28 02:54:24;;;;;;;15.90;8.98;;;17.40;99.90;;;;;;5038832;28;20025;-95
2023/06/28 02:56:50;;;;;;;17.20;8.32;;;17.40;99.90;;;;;;5039151;28;20021;-94
2023/06/28 02:59:16;;;;;;;16.63;8.50;;;17.40;99.90;;;;;;5037473;28;20025;-91
2023/06/28 03:01:41;;;;;;;17.15;8.32;;;17.40;99.90;;;;;;5037068;28;20046;-95
2023/06/28 03:04:07;;;;;;;16.88;8.45;;;17.40;99.90;;;;;;5037374;28;20035;-94
2023/06/28 03:06:35;;;;;;;15.80;8.43;;;17.40;99.90;;;;;;5037440;28;20040;-95
2023/06/28 03:09:00;;;;;;;17.55;8.38;;;17.40;99.90;;;;;;5053829;28;20504;-95
2023/06/28 03:11:26;;;;;;;14.70;8.05;;;17.40;99.90;;;;;;5037067;28;20075;-95
2023/06/28 03:13:52;;;;;;;18.77;8.07;;;17.40;99.90;;;;;;5053629;28;20496;-94
2023/06/28 03:16:18;;;;;;;11.60;7.00;;;17.40;99.90;;;;;;5040958;28;20025;-95
2023/06/28 03:18:43;;;;;;;14.50;8.30;;;17.40;99.90;;;;;;5036878;28;20033;-94
2023/06/28 03:21:09;;;;;;;14.77;8.23;;;17.40;99.90;;;;;;5036689;28;20033;-95
2023/06/28 03:23:36;;;;;;;17.77;8.80;;;17.40;99.90;;;;;;5037900;28;20546;-95
2023/06/28 03:26:01;;;;;;;13.90;8.48;;;17.30;99.90;;;;;;5036577;28;20026;-95
2023/06/28 03:28:27;;;;;;;11.40;6.85;;;17.30;99.90;;;;;;5030941;28;20039;-93
2023/06/28 03:30:53;;;;;;;16.35;9.10;;;17.30;99.90;;;;;;5020665;28;20025;-95
2023/06/28 03:33:18;;;;;;;15.85;9.52;;;17.30;99.90;;;;;;5017205;28;20041;-95
2023/06/28 03:35:44;;;;;;;16.55;8.48;;;17.20;99.90;;;;;;5017442;28;20029;-94
2023/06/28 03:38:10;;;;;;;15.20;8.30;;;17.20;99.90;;;;;;5017432;28;20033;-94
2023/06/28 03:40:36;;;;;;;18.80;8.48;;;17.30;99.90;;;;;;5016543;28;20033;-95
2023/06/28 03:43:02;;;;;;;11.75;6.97;;;17.20;99.90;;;;;;5017015;28;20017;-94
2023/06/28 03:45:29;;;;;;;14.32;7.25;;;17.30;99.90;;;;;;5021674;28;20059;-93
2023/06/28 03:47:54;;;;;;;12.35;7.60;;;17.20;99.90;;;;;;5036617;28;20032;-93
2023/06/28 03:50:20;;;;;;;17.67;8.60;;;17.20;99.90;;;;;;5037022;28;20060;-92
2023/06/28 03:52:46;;;;;;;18.70;9.15;;;17.20;99.90;;;;;;5038132;28;20431;-93
2023/06/28 03:55:12;;;;;;;14.05;7.75;;;17.20;99.90;;;;;;5038465;28;20021;-93
2023/06/28 03:57:39;;;;;;;18.45;8.07;;;17.20;99.90;;;;;;5044364;28;20176;-95
2023/06/28 04:00:08;;;;;;;15.45;8.18;;;17.20;99.90;;;;;;5041295;28;20111;-94
2023/06/28 04:02:34;;;;;;;12.52;6.97;;;17.20;99.90;;;;;;5036246;28;20020;-94
2023/06/28 04:05:00;;;;;;;12.77;7.55;;;17.20;99.90;;;;;;5037417;28;20033;-93
2023/06/28 04:07:26;;;;;;;12.98;7.40;;;17.20;99.90;;;;;;5038753;28;20031;-94
2023/06/28 04:09:51;;;;;;;11.25;6.78;;;17.20;99.90;;;;;;5038226;28;20029;-94
2023/06/28 04:12:17;;;;;;;10.90;6.97;;;17.20;99.90;;;;;;5034214;28;20024;-94
2023/06/28 04:14:43;;;;;;;15.48;7.20;;;17.20;99.90;;;;;;5022938;28;20033;-93
2023/06/28 04:17:09;;;;;;;11.75;6.88;;;17.20;99.90;;;;;;5035310;28;20517;-93
2023/06/28 04:19:34;;;;;;;12.52;7.25;;;17.20;99.90;;;;;;5034777;28;20124;-93
2023/06/28 04:22:00;;;;;;;15.65;7.97;;;17.20;99.90;;;;;;5035468;28;20094;-94
2023/06/28 04:24:26;;;;;;;13.45;7.88;;;17.20;99.90;;;;;;5052617;28;20079;-94
2023/06/28 04:26:51;;;;;;;11.30;6.47;;;17.20;99.90;;;;;;5035999;28;20079;-94
2023/06/28 04:29:17;;;;;;;8.95;6.35;;;17.20;99.90;;;;;;5035966;28;20483;-94
2023/06/28 04:31:43;;;;;;;10.68;6.45;;;17.20;99.90;;;;;;5036307;28;20079;-94
2023/06/28 04:34:08;;;;;;;11.30;6.38;;;17.20;99.90;;;;;;5035981;28;20033;-93
2023/06/28 04:36:34;;;;;;;8.35;5.47;;;17.20;99.90;;;;;;5035982;28;20074;-94
2023/06/28 04:39:03;;;;;;;9.52;5.93;;;17.20;99.90;;;;;;5035996;28;20036;-93
2023/06/28 04:41:28;;;;;;;10.63;6.43;;;17.20;99.90;;;;;;5036107;28;20174;-94
2023/06/28 04:43:56;;;;;;;12.45;6.07;;;17.20;99.90;;;;;;5035998;28;20063;-94
2023/06/28 04:46:26;;;;;;;10.65;5.90;;;17.30;99.90;;;;;;5024518;28;20049;-94
2023/06/28 04:48:54;;;;;;;8.75;6.15;;;17.30;99.90;;;;;;5017889;28;20057;-93
2023/06/28 04:51:20;;;;;;;8.95;5.78;;;17.20;99.90;;;;;;5020076;28;20030;-93
2023/06/28 04:53:49;;;;;;;9.82;5.88;;;17.20;99.90;;;;;;5019947;28;20021;-93
2023/06/28 04:56:15;;;;;;;10.05;6.13;;;17.30;99.90;;;;;;5018444;28;20025;-94
2023/06/28 04:58:41;;;;;;;9.35;6.10;;;17.20;99.90;;;;;;5028425;28;20022;-93
2023/06/28 05:01:08;;;;;;;12.57;6.97;;;17.20;99.90;;;;;;5035773;28;20036;-93
2023/06/28 05:03:34;;;;;;;11.40;6.25;;;17.30;99.90;;;;;;5032446;28;20034;-94
2023/06/28 05:06:02;;;;;;;11.23;5.15;;;17.30;99.90;;;;;;5033972;28;20053;-92
2023/06/28 05:08:28;;;;;;;10.07;6.13;;;17.20;99.90;;;;;;5032874;28;20037;-93
2023/06/28 05:10:55;;;;;;;10.10;5.40;;;17.30;99.90;;;;;;5036806;28;20026;-93
2023/06/28 05:13:21;;;;;;;8.40;5.60;;;17.30;99.90;;;;;;5035927;28;20037;-94
2023/06/28 05:15:47;;;;;;;7.93;5.45;;;17.30;99.90;;;;;;5022639;28;20112;-95
2023/06/28 05:18:13;;;;;;;7.47;5.20;;;17.30;99.90;;;;;;5021764;28;20429;-93
2023/06/28 05:20:38;;;;;;;8.13;5.05;;;17.30;99.90;;;;;;5019790;28;20034;-94
2023/06/28 05:23:10;;;;;;;8.88;5.38;;;17.30;99.90;;;;;;5019701;28;20465;-94
2023/06/28 05:25:36;;;;;;;8.88;5.57;;;17.30;99.90;;;;;;5022014;28;20049;-94
2023/06/28 05:28:02;;;;;;;7.40;5.38;;;17.30;99.90;;;;;;5028008;28;20076;-93
2023/06/28 05:30:27;;;;;;;10.18;5.78;;;17.40;99.90;;;;;;5026623;28;20034;-92
2023/06/28 05:32:53;;;;;;;7.00;4.80;;;17.40;99.90;;;;;;5024661;28;20428;-93
2023/06/28 05:35:20;;;;;;;7.82;4.75;;;17.40;99.90;;;;;;5021482;28;20500;-93
2023/06/28 05:37:46;;;;;;;7.93;4.63;;;17.40;99.90;;;;;;5019461;28;20042;-93
2023/06/28 05:40:12;;;;;;;8.27;5.10;;;17.50;99.90;;;;;;5018458;28;20072;-94
2023/06/28 05:42:37;;;;;;;8.43;5.22;;;17.50;99.90;;;;;;5017897;28;20034;-93
2023/06/28 05:45:04;;;;;;;7.63;5.20;;;17.50;99.90;;;;;;5019547;28;20049;-95
2023/06/28 05:47:30;;;;;;;9.70;5.55;;;17.60;99.90;;;;;;5037983;28;20029;-96
2023/06/28 05:49:56;;;;;;;14.75;6.40;;;17.60;99.90;;;;;;5038351;28;20086;-94
2023/06/28 05:52:21;;;;;;;13.10;5.90;;;17.60;99.90;;;;;;5036713;28;20035;-93
2023/06/28 05:54:47;;;;;;;9.05;6.20;;;17.70;99.90;;;;;;5037446;28;20033;-95
2023/06/28 05:57:13;;;;;;;10.32;5.75;;;17.70;99.90;;;;;;5045721;28;20025;-92
2023/06/28 05:59:39;;;;;;;8.88;5.65;;;17.70;99.90;;;;;;5046139;28;20033;-95
2023/06/28 06:02:05;;;;;;;6.68;5.40;;;17.70;99.90;;;;;;5018391;28;20049;-95
2023/06/28 06:04:30;;;;;;;10.90;5.50;;;17.80;99.90;;;;;;5014113;28;20497;-92
2023/06/28 06:06:56;;;;;;;7.50;5.47;;;17.80;99.90;;;;;;5015034;28;20380;-95
2023/06/28 06:09:26;;;;;;;6.57;4.72;;;17.80;99.90;;;;;;5015143;28;20037;-95
2023/06/28 06:11:51;;;;;;;9.73;5.80;;;17.90;99.90;;;;;;5014212;28;20056;-94
2023/06/28 06:14:17;;;;;;;5.95;4.40;;;17.90;99.90;;;;;;5015273;28;20480;-92
2023/06/28 06:16:43;;;;;;;5.60;4.38;;;17.90;99.90;;;;;;5015519;28;20165;-96
2023/06/28 06:19:08;;;;;;;11.55;4.43;;;17.80;99.90;;;;;;5033422;28;20190;-91
2023/06/28 06:21:34;;;;;;;7.15;4.63;;;17.80;99.90;;;;;;5018814;28;20140;-94
2023/06/28 06:24:01;;;;;;;7.75;4.80;;;17.90;99.90;;;;;;5019407;28;20020;-95
2023/06/28 06:26:27;;;;;;;8.20;4.93;;;17.90;99.90;;;;;;5017299;28;20037;-94
2023/06/28 06:28:53;;;;;;;6.32;4.53;;;17.90;99.90;;;;;;5020322;28;20504;-94
2023/06/28 06:31:19;;;;;;;4.97;3.30;;;17.90;99.90;;;;;;5003200;28;20472;-95
2023/06/28 06:33:45;;;;;;;6.43;3.22;;;18.00;99.90;;;;;;5020573;28;20032;-95
2023/06/28 06:36:10;;;;;;;6.45;3.40;;;18.00;99.90;;;;;;5018268;28;20017;-94
2023/06/28 06:38:37;;;;;;;4.32;3.00;;;18.10;99.90;;;;;;5018680;28;20025;-95
2023/06/28 06:41:03;;;;;;;4.05;3.28;;;18.10;99.90;;;;;;5018463;28;20496;-93
2023/06/28 06:43:29;;;;;;;6.68;3.58;;;18.10;99.90;;;;;;5018501;28;20059;-95
2023/06/28 06:45:54;;;;;;;6.60;3.67;;;18.20;99.90;;;;;;5016138;28;20069;-94
2023/06/28 06:48:20;;;;;;;8.63;2.90;;;18.30;99.90;;;;;;5038329;28;20120;-94
2023/06/28 06:50:46;;;;;;;8.27;3.78;;;18.30;99.90;;;;;;5037785;28;20021;-95
2023/06/28 06:53:12;;;;;;;5.75;2.90;;;18.40;99.90;;;;;;5037732;28;20566;-94
2023/06/28 06:55:37;;;;;;;4.45;2.60;;;18.40;99.90;;;;;;5054688;28;20033;-93
2023/06/28 06:58:03;;;;;;;6.68;2.65;;;18.40;99.90;;;;;;5037573;28;20028;-93
2023/06/28 07:00:29;;;;;;;3.50;2.90;;;18.40;99.90;;;;;;5037542;28;20025;-93
2023/06/28 07:02:55;;;;;;;4.70;2.90;;;18.40;99.90;;;;;;5053737;28;20032;-90
2023/06/28 07:05:21;;;;;;;6.93;2.97;;;18.40;99.90;;;;;;5038028;28;20025;-93
2023/06/28 07:07:46;;;;;;;6.32;3.00;;;18.40;99.90;;;;;;5053466;28;20049;-94
2023/06/28 07:10:12;;;;;;;3.97;2.88;;;18.40;99.90;;;;;;5039316;28;20028;-94
2023/06/28 07:12:38;;;;;;;3.50;2.90;;;18.40;99.90;;;;;;5056138;28;20021;-94
2023/06/28 07:15:04;;;;;;;3.90;2.50;;;18.50;99.90;;;;;;5042066;28;20471;-93
2023/06/28 07:17:30;;;;;;;6.43;2.67;;;18.50;99.90;;;;;;5055270;28;20025;-94
2023/06/28 07:19:56;;;;;;;4.90;2.58;;;18.50;99.90;;;;;;5051909;28;20392;-94
2023/06/28 07:22:22;;;;;;;4.70;2.65;;;18.50;99.90;;;;;;5039951;28;20036;-93
2023/06/28 07:24:48;;;;;;;3.65;2.30;;;18.50;99.90;;;;;;5040562;28;20025;-92
2023/06/28 07:27:13;;;;;;;4.93;2.80;;;18.60;99.90;;;;;;5055164;28;20423;-91
2023/06/28 07:29:39;;;;;;;4.00;2.40;;;18.60;99.90;;;;;;5042405;28;20033;-91
2023/06/28 07:32:05;;;;;;;5.03;2.40;;;18.60;99.90;;;;;;5047521;28;20081;-92
2023/06/28 07:34:31;;;;;;;3.60;2.28;;;18.60;99.90;;;;;;5048096;28;20017;-91
2023/06/28 07:36:57;;;;;;;4.10;2.00;;;18.70;99.90;;;;;;5043302;28;20088;-93
2023/06/28 07:39:22;;;;;;;2.80;2.10;;;18.70;99.90;;;;;;5055730;28;20024;-94
2023/06/28 07:41:48;;;;;;;3.90;2.05;;;18.70;99.90;;;;;;5058015;28;20032;-93
2023/06/28 07:44:14;;;;;;;6.00;2.58;;;18.70;99.90;;;;;;5055337;28;20021;-92
2023/06/28 07:46:39;;;;;;;5.30;2.53;;;18.80;99.90;;;;;;5025885;28;20185;-92
2023/06/28 07:49:05;;;;;;;4.47;2.60;;;18.80;99.90;;;;;;5038428;28;20481;-93
2023/06/28 07:51:31;;;;;;;3.55;2.20;;;18.80;99.90;;;;;;5019966;28;20026;-92
2023/06/28 07:53:56;;;;;;;4.95;2.58;;;18.90;99.90;;;;;;5020770;28;20116;-94
2023/06/28 07:56:22;;;;;;;3.67;2.33;;;18.90;99.90;;;;;;5021150;28;20056;-90
2023/06/28 07:58:48;;;;;;;5.63;2.10;;;19.00;99.90;;;;;;5023604;28;20029;-92
2023/06/28 08:01:15;;;;;;;3.08;2.13;;;19.00;99.90;;;;;;5021895;28;20025;-91
2023/06/28 08:03:40;;;;;;;3.67;1.80;;;19.00;99.90;;;;;;5017998;28;20029;-91
2023/06/28 08:06:06;;;;;;;4.20;2.03;;;19.10;99.90;;;;;;5017780;28;20024;-92
2023/06/28 08:08:32;;;;;;;4.35;2.05;;;19.20;99.90;;;;;;5017806;28;20044;-91
2023/06/28 08:10:57;;;;;;;3.17;2.00;;;19.30;99.90;;;;;;5017596;28;20033;-92
2023/06/28 08:13:23;;;;;;;2.97;1.38;;;19.30;99.90;;;;;;5017653;28;20021;-91
2023/06/28 08:15:49;;;;;;;5.30;2.00;;;19.40;99.90;;;;;;5019652;28;20063;-93
2023/06/28 08:18:16;;;;;;;6.32;1.65;;;19.40;99.90;;;;;;5014284;28;20025;-92
2023/06/28 08:20:44;;;;;;;3.55;1.70;;;19.40;99.90;;;;;;5014205;28;20033;-93
2023/06/28 08:23:10;;;;;;;2.83;1.60;;;19.50;99.90;;;;;;5015233;28;20037;-92
2023/06/28 08:25:36;;;;;;;2.92;1.90;;;19.60;99.90;;;;;;5015672;28;20502;-94
2023/06/28 08:28:02;;;;;;;3.50;1.52;;;19.60;99.90;;;;;;5013140;28;20025;-92
2023/06/28 08:30:28;;;;;;;3.08;1.52;;;19.70;99.90;;;;;;5013917;28;20038;-91
2023/06/28 08:32:53;;;;;;;2.90;1.50;;;19.70;99.90;;;;;;5018073;28;20253;-93
2023/06/28 08:35:19;;;;;;;3.40;1.83;;;19.80;99.90;;;;;;5020226;28;20373;-92
2023/06/28 08:37:45;;;;;;;1.92;1.40;;;19.90;99.90;;;;;;5035893;28;20022;-94
2023/06/28 08:40:11;;;;;;;3.15;1.40;;;20.00;99.90;;;;;;5017765;28;20060;-92
2023/06/28 08:42:39;;;;;;;2.28;1.73;;;20.00;99.90;;;;;;5016567;28;20021;-92
2023/06/28 08:45:06;;;;;;;2.67;2.08;;;20.10;99.90;;;;;;5018832;28;20049;-93
2023/06/28 08:47:32;;;;;;;3.78;1.48;;;20.10;99.90;;;;;;5036035;28;20021;-92
2023/06/28 08:49:59;;;;;;;2.85;1.85;;;20.20;99.90;;;;;;5053339;28;20031;-93
2023/06/28 08:52:26;;;;;;;2.70;1.40;;;20.20;99.90;;;;;;5037605;28;20077;-93
2023/06/28 08:54:53;;;;;;;2.42;1.17;;;20.30;99.90;;;;;;5056749;28;20040;-93
2023/06/28 08:57:23;;;;;;;2.17;1.42;;;20.30;99.90;;;;;;5038072;28;20044;-94
2023/06/28 09:00:17;;;;;;;1.65;1.25;;;20.30;99.90;;;;;;5046019;28;20021;-93
2023/06/28 09:02:43;;;;;;;2.35;1.23;;;20.40;99.90;;;;;;5044708;28;20033;-93
2023/06/28 09:05:10;;;;;;;1.33;1.20;;;20.40;99.90;;;;;;5042767;28;20115;-92
2023/06/28 09:07:40;;;;;;;1.90;1.05;;;20.50;99.90;;;;;;5053570;28;20552;-92
2023/06/28 09:10:10;;;;;;;1.30;1.15;;;20.60;99.90;;;;;;5055862;28;20017;-92
2023/06/28 09:12:37;;;;;;;2.95;0.98;;;20.70;99.90;;;;;;5054746;28;20021;-94
2023/06/28 09:15:03;;;;;;;2.15;1.13;;;20.70;99.90;;;;;;5052790;28;20037;-93
2023/06/28 09:17:29;;;;;;;2.03;1.25;;;20.80;99.90;;;;;;5068158;28;20021;-92
2023/06/28 09:20:01;;;;;;;1.17;1.08;;;20.90;99.90;;;;;;5045932;28;20097;-92
2023/06/28 09:22:28;;;;;;;2.42;1.15;;;21.00;99.90;;;;;;5043695;28;20021;-92
2023/06/28 09:24:54;;;;;;;2.78;1.30;;;21.10;99.90;;;;;;5042511;28;20124;-94
2023/06/28 09:27:19;;;;;;;6.80;1.25;;;21.20;99.90;;;;;;5039435;28;20021;-93
2023/06/28 09:29:59;;;;;;;3.67;1.00;;;21.40;99.90;;;;;;5037375;28;20037;-93
2023/06/28 09:32:25;;;;;;;2.45;1.30;;;21.50;99.90;;;;;;5041458;28;20047;-93
2023/06/28 09:34:51;;;;;;;2.80;1.10;;;21.70;99.90;;;;;;5053795;28;20029;-93
2023/06/28 09:37:17;;;;;;;4.05;1.52;;;21.80;99.90;;;;;;5035815;28;20060;-93
2023/06/28 09:39:43;;;;;;;3.55;1.20;;;21.90;99.90;;;;;;5037466;28;20021;-95
2023/06/28 09:42:08;;;;;;;1.30;1.02;;;22.00;99.90;;;;;;5052003;28;20439;-94
2023/06/28 09:44:34;;;;;;;2.83;0.95;;;22.10;99.90;;;;;;5045864;22;20044;-67
2023/06/28 09:47:04;;;;;;;2.45;1.10;;;22.20;99.90;;;;;;5065611;28;20033;-68
2023/06/28 09:49:30;;;;;;;3.58;1.10;;;22.40;99.90;;;;;;5070694;28;20032;-68
2023/06/28 09:51:58;;;;;;;2.95;1.00;;;22.60;99.90;;;;;;5070374;28;20073;-68
2023/06/28 09:54:45;;;;;;;1.38;0.80;;;22.70;99.90;;;;;;5073144;28;20503;-68
2023/06/28 09:57:11;;;;;;;2.25;1.15;;;22.80;99.90;;;;;;5074506;28;20031;-68
2023/06/28 09:59:39;;;;;;;1.63;1.23;;;23.00;99.90;;;;;;5071185;28;20383;-66
2023/06/28 10:02:08;;;;;;;1.20;1.00;;;23.20;99.90;;;;;;5074464;28;20036;-67
2023/06/28 10:04:35;;;;;;;3.17;1.02;;;23.30;99.90;;;;;;5075026;28;20604;-65
2023/06/28 10:07:03;;;;;;;2.88;1.00;;;23.40;99.90;;;;;;5056796;28;20059;-66
2023/06/28 10:09:39;;;;;;;2.33;1.13;;;23.50;99.90;;;;;;5073779;28;20029;-66
2023/06/28 10:12:14;;;;;;;2.47;1.00;;;23.60;99.90;;;;;;5073228;28;20021;-66
2023/06/28 10:14:44;;;;;;;0.77;0.75;;;23.60;99.90;;;;;;5073342;28;20402;-66
2023/06/28 10:17:11;;;;;;;3.30;0.80;;;23.70;99.90;;;;;;5073597;28;20028;-66
2023/06/28 10:19:37;;;;;;;1.60;0.90;;;23.70;99.90;;;;;;5073498;28;20091;-67
2023/06/28 10:22:04;;;;;;;0.82;0.80;;;23.70;99.90;;;;;;5072019;28;20024;-67
2023/06/28 10:24:33;;;;;;;1.52;1.20;;;23.70;99.90;;;;;;5046417;28;20124;-66
2023/06/28 10:27:04;;;;;;;1.80;1.20;;;23.70;99.90;;;;;;5055612;28;20367;-65
2023/06/28 10:29:30;;;;;;;2.67;1.40;;;23.70;99.90;;;;;;5053586;28;20041;-66
2023/06/28 10:31:56;;;;;;;3.45;1.15;;;23.60;99.90;;;;;;5066175;28;20028;-66
2023/06/28 10:34:22;;;;;;;1.73;1.10;;;23.60;99.90;;;;;;5073687;28;20029;-66
2023/06/28 10:36:48;;;;;;;1.30;1.10;;;23.60;99.90;;;;;;5073832;28;20032;-66
2023/06/28 10:39:15;;;;;;;2.45;1.10;;;23.60;99.90;;;;;;5059007;28;20486;-67
2023/06/28 10:41:42;;;;;;;1.70;1.00;;;23.40;99.90;;;;;;5074634;28;20017;-65
2023/06/28 10:44:08;;;;;;;2.47;1.35;;;23.20;99.90;;;;;;5056497;28;20031;-65
2023/06/28 10:46:36;;;;;;;3.00;1.15;;;23.10;99.90;;;;;;5075032;28;20051;-65
2023/06/28 10:49:03;;;;;;;5.10;1.08;;;22.90;99.90;;;;;;5056707;28;20064;-66
2023/06/28 10:51:36;;;;;;;1.00;0.90;;;22.90;99.90;;;;;;5074568;28;20017;-65
2023/06/28 10:54:15;;;;;;;1.42;0.90;;;22.80;99.90;;;;;;5074805;28;20028;-67
2023/06/28 10:56:55;;;;;;;3.42;0.93;;;22.80;99.90;;;;;;5039362;28;20030;-66
2023/06/28 10:59:20;;;;;;;2.38;1.20;;;22.80;99.90;;;;;;5034430;28;20057;-66
2023/06/28 11:01:49;;;;;;;2.42;1.30;;;22.80;99.90;;;;;;5034449;28;20060;-66
2023/06/28 11:04:25;;;;;;;1.55;1.15;;;22.80;99.90;;;;;;5016180;28;20049;-66
2023/06/28 11:07:15;;;;;;;1.58;0.80;;;22.90;99.90;;;;;;5034467;28;20133;-66
2023/06/28 11:10:01;;;;;;;5.60;1.20;;;22.90;99.90;;;;;;5046387;28;20079;-67
2023/06/28 11:12:27;;;;;;;4.65;1.45;;;22.90;99.90;;;;;;5054269;28;20103;-68
2023/06/28 11:15:25;;;;;;;1.38;1.02;;;22.90;99.90;;;;;;5054061;28;20182;-68
2023/06/28 11:17:51;;;;;;;2.45;1.00;;;22.90;99.90;;;;;;5034220;28;20033;-65
2023/06/28 11:20:17;;;;;;;3.45;1.00;;;22.90;99.90;;;;;;5042355;28;20505;-65
2023/06/28 11:22:53;;;;;;;1.88;1.10;;;22.90;99.90;;;;;;5035839;28;20474;-65
2023/06/28 11:25:29;;;;;;;4.85;1.00;;;22.80;99.90;;;;;;5053403;28;20044;-68
2023/06/28 11:27:58;;;;;;;4.10;1.30;;;22.80;99.90;;;;;;5056682;28;20027;-66
2023/06/28 11:30:46;;;;;;;3.80;1.17;;;22.80;99.90;;;;;;5061376;28;20025;-67
2023/06/28 11:33:12;;;;;;;3.83;1.20;;;22.90;99.90;;;;;;5053465;28;20151;-68
2023/06/28 11:35:38;;;;;;;1.23;0.88;;;22.90;99.90;;;;;;5042398;28;20460;-67
2023/06/28 11:38:05;;;;;;;4.85;1.20;;;23.00;99.90;;;;;;5040131;28;20033;-69
2023/06/28 11:40:30;;;;;;;5.10;1.13;;;23.00;99.90;;;;;;5049149;28;20517;-67
2023/06/28 11:42:56;;;;;;;5.35;1.10;;;22.90;99.90;;;;;;5038280;28;20037;-67
2023/06/28 11:45:22;;;;;;;4.70;1.20;;;22.90;99.90;;;;;;5046264;28;20142;-69
2023/06/28 11:47:48;;;;;;;3.13;1.05;;;22.90;99.90;;;;;;5053331;28;20024;-67
2023/06/28 11:50:15;;;;;;;3.75;0.98;;;22.80;99.90;;;;;;5053176;28;20029;-65
2023/06/28 11:52:46;;;;;;;1.40;0.98;;;22.60;99.90;;;;;;5053385;28;20029;-66
2023/06/28 11:55:15;;;;;;;3.40;0.93;;;22.50;99.90;;;;;;5053355;28;20392;-68
2023/06/28 11:57:47;;;;;;;2.95;1.40;;;22.40;99.90;;;;;;5035371;28;20068;-67
2023/06/28 12:00:15;;;;;;;5.90;1.40;;;22.40;99.90;;;;;;5052991;28;20447;-68
2023/06/28 12:02:51;;;;;;;5.03;1.35;;;22.40;99.90;;;;;;5052960;28;20434;-69
2023/06/28 12:05:18;;;;;;;2.47;1.20;;;22.30;99.90;;;;;;5052932;28;20051;-68
2023/06/28 12:07:46;;;;;;;2.67;1.30;;;22.20;99.90;;;;;;5053153;28;20028;-67
2023/06/28 12:10:12;;;;;;;1.92;1.50;;;22.20;99.90;;;;;;5072925;28;20381;-67
2023/06/28 12:12:41;;;;;;;6.32;1.65;;;22.20;99.90;;;;;;5053450;28;20044;-67
2023/06/28 12:15:12;;;;;;;3.70;1.50;;;22.20;99.90;;;;;;5053306;28;20111;-68
2023/06/28 12:17:41;;;;;;;2.22;1.05;;;22.20;99.90;;;;;;5034616;28;20029;-68
2023/06/28 12:20:14;;;;;;;4.88;1.55;;;22.20;99.90;;;;;;5052863;28;20032;-67
2023/06/28 12:22:46;;;;;;;4.05;1.60;;;22.30;99.90;;;;;;5052843;28;20036;-67
2023/06/28 12:25:12;;;;;;;1.48;1.15;;;22.40;99.90;;;;;;5036502;28;20057;-67
2023/06/28 12:27:41;;;;;;;1.95;1.25;;;22.30;99.90;;;;;;5071743;28;20024;-67
2023/06/28 12:30:16;;;;;;;3.20;1.15;;;22.30;99.90;;;;;;5072156;28;20566;-66
2023/06/28 12:32:44;;;;;;;2.45;1.40;;;22.30;99.90;;;;;;5072432;28;20032;-67
2023/06/28 12:35:21;;;;;;;1.73;1.02;;;22.20;99.90;;;;;;5072577;28;20020;-67
2023/06/28 12:37:55;;;;;;;2.97;0.90;;;22.10;99.90;;;;;;5052579;28;20025;-67
2023/06/28 12:40:24;;;;;;;4.57;1.20;;;22.10;99.90;;;;;;5051474;28;20488;-67
2023/06/28 12:43:08;;;;;;;1.55;1.13;;;22.20;99.90;;;;;;5054531;28;20111;-67